Time;durP1;ratioP1;P1;durP2;ratioP2;P2;SDS_P1;SDS_P2;PMS_P1;PMS_P2;Temp;Humidity;BMP_temperature;BMP_pressure;BME280_temperature;BME280_humidity;BME280_pressure;Samples;Min_cycle;Max_cycle;Signal;HPM_P1;HPM_P2
2022/04/29 00:00:34;;;;;;;7.72;3.33;;;12.40;56.50;;;;;;5128373;27;20087;-65
2022/04/29 00:03:00;;;;;;;9.93;3.80;;;12.40;56.50;;;;;;5134017;27;20088;-65
2022/04/29 00:05:26;;;;;;;8.77;3.72;;;12.40;56.70;;;;;;5135581;27;20042;-65
2022/04/29 00:07:52;;;;;;;7.65;3.95;;;12.30;56.70;;;;;;5121881;27;20031;-65
2022/04/29 00:10:18;;;;;;;8.68;3.40;;;12.30;56.80;;;;;;5123079;27;20042;-65
2022/04/29 00:12:49;;;;;;;8.43;3.33;;;12.30;56.80;;;;;;5116394;27;20122;-65
2022/04/29 00:15:17;;;;;;;8.13;3.75;;;12.30;57.00;;;;;;5135511;27;20042;-65
2022/04/29 00:17:43;;;;;;;8.10;3.67;;;12.20;57.00;;;;;;5121136;27;20149;-65
2022/04/29 00:20:10;;;;;;;10.20;3.20;;;12.20;57.00;;;;;;5115224;28;20408;-65
2022/04/29 00:22:36;;;;;;;10.70;3.80;;;12.20;57.00;;;;;;5115847;27;20163;-65
2022/04/29 00:25:03;;;;;;;9.85;4.22;;;12.20;57.20;;;;;;5135183;27;20043;-65
2022/04/29 00:27:29;;;;;;;10.45;4.63;;;12.20;57.20;;;;;;5125258;27;20077;-65
2022/04/29 00:29:54;;;;;;;8.35;3.97;;;12.20;57.20;;;;;;5131284;27;20472;-65
2022/04/29 00:32:22;;;;;;;10.15;4.03;;;12.20;57.80;;;;;;5117041;28;20035;-66
2022/04/29 00:34:48;;;;;;;11.45;4.50;;;12.20;57.30;;;;;;5132461;27;20080;-65
2022/04/29 00:37:15;;;;;;;8.82;3.58;;;12.10;57.40;;;;;;5133857;27;20024;-65
2022/04/29 00:39:40;;;;;;;10.05;4.70;;;12.10;57.50;;;;;;5108258;28;20076;-65
2022/04/29 00:42:17;;;;;;;11.05;4.40;;;12.00;57.50;;;;;;5117985;27;20308;-67
2022/04/29 00:44:45;;;;;;;11.27;4.38;;;12.10;57.70;;;;;;5128784;27;20482;-65
2022/04/29 00:47:13;;;;;;;8.38;4.45;;;12.00;57.70;;;;;;5105999;28;20024;-65
2022/04/29 00:49:39;;;;;;;12.60;4.72;;;12.00;57.70;;;;;;5123333;27;20060;-65
2022/04/29 00:52:11;;;;;;;8.35;4.38;;;11.90;57.70;;;;;;5121630;28;20019;-65
2022/04/29 00:54:38;;;;;;;10.38;4.35;;;12.00;57.90;;;;;;5132784;27;20076;-65
2022/04/29 00:57:09;;;;;;;11.55;4.93;;;11.90;57.80;;;;;;5124346;27;20061;-66
2022/04/29 00:59:44;;;;;;;12.52;4.50;;;11.90;57.90;;;;;;5123803;27;20448;-65
2022/04/29 01:02:10;;;;;;;10.88;4.75;;;11.90;57.90;;;;;;5135284;28;20092;-65
2022/04/29 01:04:43;;;;;;;8.20;4.50;;;11.90;57.90;;;;;;5124236;27;20036;-65
2022/04/29 01:07:09;;;;;;;12.55;5.32;;;11.90;58.00;;;;;;5114062;27;20040;-65
2022/04/29 01:09:34;;;;;;;11.48;4.72;;;11.80;58.10;;;;;;5134494;27;20050;-65
2022/04/29 01:12:01;;;;;;;9.60;4.63;;;11.80;58.10;;;;;;5113580;28;20107;-65
2022/04/29 01:14:27;;;;;;;11.15;4.88;;;11.80;58.20;;;;;;5137301;27;20066;-65
2022/04/29 01:16:52;;;;;;;11.90;5.53;;;11.80;58.20;;;;;;5095551;28;20444;-65
2022/04/29 01:19:18;;;;;;;8.85;4.65;;;11.80;58.30;;;;;;5104738;27;20023;-65
2022/04/29 01:21:44;;;;;;;11.00;5.00;;;11.70;58.30;;;;;;5114309;28;20032;-65
2022/04/29 01:24:10;;;;;;;14.20;5.55;;;11.70;58.40;;;;;;5113683;28;20025;-65
2022/04/29 01:26:36;;;;;;;10.02;5.13;;;11.70;58.40;;;;;;5115791;28;20027;-65
2022/04/29 01:29:02;;;;;;;10.55;5.78;;;11.70;58.50;;;;;;5131353;27;20110;-65
2022/04/29 01:31:30;;;;;;;11.27;5.60;;;11.70;58.50;;;;;;5099801;28;20027;-65
2022/04/29 01:33:58;;;;;;;12.00;5.63;;;11.60;58.60;;;;;;5114934;28;20045;-65
2022/04/29 01:36:23;;;;;;;13.20;5.93;;;11.60;58.60;;;;;;5099319;27;20114;-65
2022/04/29 01:38:49;;;;;;;8.85;5.30;;;11.60;58.70;;;;;;5135446;27;20102;-65
2022/04/29 01:41:15;;;;;;;12.18;5.60;;;11.60;58.70;;;;;;5138202;27;20362;-65
2022/04/29 01:43:42;;;;;;;9.45;5.38;;;11.60;58.70;;;;;;5116795;27;20023;-65
2022/04/29 01:46:11;;;;;;;11.43;6.28;;;11.60;58.80;;;;;;5120011;27;20080;-65
2022/04/29 01:48:55;;;;;;;11.38;5.40;;;11.50;58.80;;;;;;5135693;27;20107;-65
2022/04/29 01:51:29;;;;;;;13.80;5.80;;;11.50;58.90;;;;;;5108320;28;20360;-65
2022/04/29 01:53:55;;;;;;;10.13;5.45;;;11.50;59.00;;;;;;5136954;27;20022;-65
2022/04/29 01:56:32;;;;;;;9.27;5.60;;;11.50;59.00;;;;;;5136179;27;20019;-65
2022/04/29 01:59:02;;;;;;;12.48;5.40;;;11.50;59.10;;;;;;5117529;27;20710;-65
2022/04/29 02:01:31;;;;;;;9.98;5.78;;;11.40;59.10;;;;;;5153319;27;20039;-65
2022/04/29 02:03:58;;;;;;;12.05;5.53;;;11.40;59.10;;;;;;5115297;27;20023;-65
2022/04/29 02:06:26;;;;;;;13.23;6.18;;;11.50;59.20;;;;;;5118319;27;20076;-65
2022/04/29 02:08:51;;;;;;;11.63;5.50;;;11.40;59.20;;;;;;5130800;27;20055;-64
2022/04/29 02:11:17;;;;;;;13.57;5.82;;;11.40;59.30;;;;;;5149498;27;20054;-65
2022/04/29 02:13:49;;;;;;;11.90;6.07;;;11.40;59.40;;;;;;5116967;27;20023;-65
2022/04/29 02:16:25;;;;;;;9.82;5.43;;;11.40;59.40;;;;;;5117661;27;20042;-64
2022/04/29 02:18:51;;;;;;;10.77;6.22;;;11.30;59.40;;;;;;5118484;27;20083;-64
2022/04/29 02:21:18;;;;;;;13.25;5.90;;;11.30;59.40;;;;;;5115825;27;20059;-64
2022/04/29 02:23:43;;;;;;;10.18;6.45;;;11.30;59.40;;;;;;5117068;27;20134;-65
2022/04/29 02:26:09;;;;;;;10.85;6.05;;;11.30;59.50;;;;;;5135321;27;20381;-65
2022/04/29 02:28:35;;;;;;;9.82;6.15;;;11.30;59.60;;;;;;5102257;27;20110;-64
2022/04/29 02:31:01;;;;;;;14.10;6.28;;;11.30;59.60;;;;;;5109926;27;20043;-64
2022/04/29 02:33:28;;;;;;;12.35;6.00;;;11.30;59.70;;;;;;5119165;27;20037;-65
2022/04/29 02:35:54;;;;;;;11.90;6.18;;;11.30;59.70;;;;;;5092362;27;20443;-65
2022/04/29 02:38:20;;;;;;;10.63;6.30;;;11.30;59.70;;;;;;5137461;27;20019;-65
2022/04/29 02:40:50;;;;;;;11.73;6.47;;;11.20;59.70;;;;;;5106034;27;20030;-65
2022/04/29 02:43:16;;;;;;;9.70;5.53;;;11.20;59.80;;;;;;5137465;27;20043;-65
2022/04/29 02:45:43;;;;;;;10.57;6.43;;;11.20;59.90;;;;;;5108931;27;20023;-64
2022/04/29 02:48:09;;;;;;;9.85;6.25;;;11.20;59.90;;;;;;5119260;27;20023;-64
2022/04/29 02:50:35;;;;;;;11.52;5.97;;;11.20;60.00;;;;;;5122690;27;20027;-64
2022/04/29 02:53:03;;;;;;;12.05;5.82;;;11.20;60.00;;;;;;5098882;28;20023;-64
2022/04/29 02:55:29;;;;;;;11.63;6.10;;;11.20;60.00;;;;;;5122062;27;20359;-64
2022/04/29 02:58:17;;;;;;;10.63;6.10;;;11.20;60.00;;;;;;5136714;27;20646;-65
2022/04/29 03:00:43;;;;;;;11.15;6.20;;;11.20;60.00;;;;;;5121930;27;20087;-64
2022/04/29 03:03:10;;;;;;;15.20;6.60;;;11.20;60.10;;;;;;5102187;27;20034;-64
2022/04/29 03:05:35;;;;;;;12.68;6.07;;;11.10;60.20;;;;;;5125100;27;20031;-64
2022/04/29 03:08:01;;;;;;;15.35;6.80;;;11.10;60.20;;;;;;5135966;27;20027;-65
2022/04/29 03:10:28;;;;;;;10.88;5.50;;;11.10;60.30;;;;;;5105413;27;20401;-65
2022/04/29 03:12:54;;;;;;;12.60;6.85;;;11.10;60.30;;;;;;5118553;27;20058;-64
2022/04/29 03:15:34;;;;;;;11.43;6.45;;;11.20;60.40;;;;;;5107821;27;20110;-64
2022/04/29 03:18:20;;;;;;;10.32;5.93;;;11.10;60.40;;;;;;5136547;27;20063;-64
2022/04/29 03:20:49;;;;;;;13.05;6.65;;;11.10;60.40;;;;;;5120115;27;20167;-64
2022/04/29 03:23:16;;;;;;;11.98;6.78;;;11.10;60.50;;;;;;5118289;27;20038;-64
2022/04/29 03:26:00;;;;;;;14.20;6.15;;;11.10;60.60;;;;;;5132020;27;20031;-64
2022/04/29 03:28:26;;;;;;;12.45;6.28;;;11.00;60.60;;;;;;5118112;27;20031;-64
2022/04/29 03:30:52;;;;;;;13.50;7.15;;;11.10;60.70;;;;;;5113658;27;20059;-65
2022/04/29 03:33:21;;;;;;;10.50;6.45;;;11.10;60.70;;;;;;5118294;27;20023;-65
2022/04/29 03:35:50;;;;;;;12.75;5.85;;;11.00;60.80;;;;;;5106582;27;20023;-65
2022/04/29 03:38:23;;;;;;;11.27;6.38;;;11.00;60.90;;;;;;5113743;27;20020;-65
2022/04/29 03:40:48;;;;;;;14.05;6.07;;;11.00;61.40;;;;;;5127929;27;20035;-65
2022/04/29 03:43:15;;;;;;;15.07;6.85;;;10.90;61.00;;;;;;5097707;28;20145;-65
2022/04/29 03:45:44;;;;;;;12.15;6.00;;;10.90;61.10;;;;;;5096793;27;20411;-64
2022/04/29 03:48:12;;;;;;;13.18;6.40;;;10.90;61.40;;;;;;5118203;27;20359;-64
2022/04/29 03:50:56;;;;;;;12.90;6.20;;;10.90;61.10;;;;;;5115645;27;20049;-64
2022/04/29 03:53:23;;;;;;;10.05;5.93;;;10.90;61.20;;;;;;5131953;27;20107;-64
2022/04/29 03:55:54;;;;;;;12.05;5.88;;;10.90;61.20;;;;;;5131689;27;20024;-64
2022/04/29 03:58:21;;;;;;;15.48;5.88;;;10.90;61.20;;;;;;5131774;27;20024;-64
2022/04/29 04:00:49;;;;;;;12.00;5.95;;;10.90;61.30;;;;;;5111587;27;20054;-64
2022/04/29 04:03:27;;;;;;;11.82;5.95;;;10.90;61.30;;;;;;5097045;27;20111;-64
2022/04/29 04:08:41;;;;;;;11.73;6.07;;;10.80;61.50;;;;;;5104374;27;20039;-64
2022/04/29 04:11:07;;;;;;;11.27;6.07;;;10.80;61.60;;;;;;5099772;28;20042;-64
2022/04/29 04:13:33;;;;;;;10.15;6.35;;;10.80;61.60;;;;;;5096880;27;20459;-65
2022/04/29 04:16:15;;;;;;;10.30;5.53;;;10.80;61.70;;;;;;5129998;27;20051;-64
2022/04/29 04:18:41;;;;;;;12.48;6.53;;;10.80;61.70;;;;;;5084539;28;20031;-65
2022/04/29 04:21:07;;;;;;;10.30;5.65;;;10.80;61.80;;;;;;5134023;27;20416;-65
2022/04/29 04:23:32;;;;;;;14.13;6.07;;;10.80;61.80;;;;;;5105852;28;20091;-65
2022/04/29 04:25:59;;;;;;;10.50;5.88;;;10.80;61.80;;;;;;5100302;27;20030;-64
2022/04/29 04:28:24;;;;;;;14.15;5.88;;;10.80;61.80;;;;;;5101530;28;20054;-65
2022/04/29 04:30:56;;;;;;;12.90;5.93;;;10.80;61.90;;;;;;5136087;27;20100;-65
2022/04/29 04:33:28;;;;;;;9.57;5.20;;;10.80;61.80;;;;;;5094823;28;20048;-64
2022/04/29 04:35:54;;;;;;;9.55;5.60;;;10.80;61.90;;;;;;5128109;27;20027;-64
2022/04/29 04:38:20;;;;;;;10.63;5.47;;;10.80;62.20;;;;;;5106043;28;20031;-64
2022/04/29 04:40:49;;;;;;;10.80;5.15;;;10.80;61.90;;;;;;5113314;28;20024;-65
2022/04/29 04:43:15;;;;;;;10.13;5.68;;;10.80;62.00;;;;;;5109421;28;20096;-65
2022/04/29 04:45:42;;;;;;;12.20;5.63;;;10.80;62.00;;;;;;5104633;28;20024;-65
2022/04/29 04:48:34;;;;;;;12.05;5.53;;;10.90;62.00;;;;;;5116207;28;20535;-65
2022/04/29 04:51:32;;;;;;;14.75;5.88;;;10.80;62.00;;;;;;5111644;27;20040;-64
2022/04/29 04:54:05;;;;;;;12.77;6.35;;;10.80;62.00;;;;;;5111843;28;20020;-64
2022/04/29 04:56:31;;;;;;;13.07;6.07;;;10.80;62.00;;;;;;5112617;28;20420;-64
2022/04/29 04:58:58;;;;;;;15.30;6.10;;;10.80;62.00;;;;;;5109794;28;20030;-64
2022/04/29 05:01:23;;;;;;;14.68;6.05;;;10.90;62.10;;;;;;5127374;28;20028;-64
2022/04/29 05:04:08;;;;;;;12.10;5.65;;;10.90;62.10;;;;;;5100397;28;20058;-65
2022/04/29 05:06:57;;;;;;;10.38;5.47;;;10.90;62.00;;;;;;5073618;28;20045;-64
2022/04/29 05:09:22;;;;;;;12.68;5.93;;;10.90;62.00;;;;;;5078029;28;20098;-64
2022/04/29 05:11:48;;;;;;;11.32;6.38;;;10.90;62.00;;;;;;5092551;28;20036;-64
2022/04/29 05:14:35;;;;;;;12.98;5.82;;;10.90;62.10;;;;;;5094504;28;20036;-64
2022/04/29 05:17:00;;;;;;;16.10;5.75;;;10.90;62.00;;;;;;5095656;28;20032;-64
2022/04/29 05:19:41;;;;;;;11.50;6.50;;;10.90;62.00;;;;;;5095549;28;20036;-64
2022/04/29 05:22:07;;;;;;;15.20;5.97;;;10.90;62.00;;;;;;5094474;28;20402;-64
2022/04/29 05:24:33;;;;;;;12.85;6.20;;;10.90;62.20;;;;;;5073167;28;20028;-64
2022/04/29 05:27:18;;;;;;;11.90;5.32;;;10.90;62.20;;;;;;5095528;28;20113;-64
2022/04/29 05:30:10;;;;;;;11.05;5.28;;;10.90;62.20;;;;;;5094922;28;20075;-64
2022/04/29 05:32:54;;;;;;;11.50;5.35;;;10.90;62.20;;;;;;5096139;28;20125;-64
2022/04/29 05:35:39;;;;;;;12.32;5.75;;;10.90;62.20;;;;;;5089703;28;20376;-64
2022/04/29 05:43:59;;;;;;;9.70;5.65;;;11.00;62.20;;;;;;5095510;28;20040;-65
2022/04/29 05:46:25;;;;;;;9.63;5.15;;;11.00;62.20;;;;;;5116536;27;20473;-65
2022/04/29 05:48:51;;;;;;;11.68;5.28;;;11.00;62.20;;;;;;5116517;27;20027;-64
2022/04/29 05:51:16;;;;;;;12.05;6.28;;;11.10;62.20;;;;;;5099796;28;20041;-64
2022/04/29 05:53:42;;;;;;;12.20;6.38;;;11.10;62.10;;;;;;5121129;27;20051;-65
2022/04/29 05:56:08;;;;;;;12.77;6.18;;;11.10;62.10;;;;;;5098404;28;20076;-65
2022/04/29 05:58:33;;;;;;;13.70;6.45;;;11.10;62.10;;;;;;5112124;27;20410;-65
2022/04/29 06:01:21;;;;;;;11.07;5.60;;;11.10;62.10;;;;;;5117605;28;20036;-65
2022/04/29 06:03:47;;;;;;;14.77;6.05;;;11.10;62.10;;;;;;5107840;28;20349;-65
2022/04/29 06:06:13;;;;;;;13.35;6.57;;;11.10;62.20;;;;;;5109270;28;20118;-65
2022/04/29 06:08:41;;;;;;;11.77;6.45;;;11.10;62.20;;;;;;5106579;28;20048;-65
2022/04/29 06:11:07;;;;;;;12.98;6.72;;;11.10;62.20;;;;;;5104139;28;20024;-65
2022/04/29 06:13:33;;;;;;;10.50;6.20;;;11.10;62.20;;;;;;5109368;27;20024;-65
2022/04/29 06:16:17;;;;;;;15.32;6.65;;;11.20;62.30;;;;;;5114763;28;20042;-65
2022/04/29 06:19:09;;;;;;;11.10;5.57;;;11.20;62.30;;;;;;5105020;28;20107;-65
2022/04/29 06:21:57;;;;;;;11.43;5.63;;;11.20;62.20;;;;;;5032525;28;20071;-64
2022/04/29 06:24:23;;;;;;;9.93;5.32;;;11.30;62.10;;;;;;5011685;28;20120;-65
2022/04/29 06:26:49;;;;;;;13.00;7.00;;;11.30;62.00;;;;;;5015182;28;20042;-65
2022/04/29 06:29:15;;;;;;;9.27;5.32;;;11.40;62.00;;;;;;5008834;28;20036;-65
2022/04/29 06:31:41;;;;;;;14.25;6.50;;;11.30;61.80;;;;;;5054616;28;20041;-64
2022/04/29 06:34:44;;;;;;;10.35;5.55;;;11.40;61.80;;;;;;4937080;29;20398;-64
2022/04/29 06:37:10;;;;;;;16.05;6.18;;;11.40;61.90;;;;;;4937482;29;20055;-65
2022/04/29 06:39:38;;;;;;;11.18;6.13;;;11.40;61.90;;;;;;4936784;29;20043;-65
2022/04/29 06:42:23;;;;;;;11.10;5.53;;;11.50;61.90;;;;;;4951888;29;20122;-64
2022/04/29 06:45:12;;;;;;;12.00;6.32;;;11.50;61.80;;;;;;4940319;29;20440;-64
2022/04/29 06:47:57;;;;;;;13.43;6.40;;;11.60;61.70;;;;;;4933539;29;20114;-64
2022/04/29 06:50:42;;;;;;;12.98;6.57;;;11.60;61.70;;;;;;4936315;29;20090;-64
2022/04/29 06:53:27;;;;;;;12.27;6.13;;;11.70;61.60;;;;;;4936370;29;20046;-64
2022/04/29 06:55:53;;;;;;;10.98;5.65;;;11.70;61.40;;;;;;4935656;29;20024;-65
2022/04/29 06:58:19;;;;;;;12.43;5.82;;;11.70;61.40;;;;;;4949905;28;20467;-64
2022/04/29 07:00:45;;;;;;;14.68;6.25;;;11.80;61.30;;;;;;5012595;28;20034;-64
2022/04/29 07:03:12;;;;;;;14.05;7.50;;;11.90;61.20;;;;;;4997260;28;20025;-65
2022/04/29 07:05:39;;;;;;;15.07;6.82;;;11.90;61.10;;;;;;5052921;28;20032;-65
2022/04/29 07:08:09;;;;;;;13.48;6.45;;;12.00;61.00;;;;;;5094496;28;20023;-65
2022/04/29 07:10:53;;;;;;;15.73;6.38;;;12.20;60.80;;;;;;5103325;28;20050;-65
2022/04/29 07:13:42;;;;;;;14.05;5.32;;;12.30;60.60;;;;;;5107928;27;20027;-64
2022/04/29 07:16:10;;;;;;;12.45;5.47;;;12.40;60.30;;;;;;5095722;28;20047;-64
2022/04/29 07:19:04;;;;;;;12.05;5.30;;;12.50;60.10;;;;;;5099507;27;20039;-64
2022/04/29 07:21:30;;;;;;;10.55;5.18;;;12.60;59.90;;;;;;5098567;28;20483;-64
2022/04/29 07:23:59;;;;;;;9.77;4.85;;;12.70;59.80;;;;;;5105118;28;20364;-64
2022/04/29 07:26:26;;;;;;;12.85;5.70;;;12.80;59.60;;;;;;5095050;28;20116;-65
2022/04/29 07:28:52;;;;;;;11.80;5.38;;;12.80;59.50;;;;;;5100008;28;20493;-64
2022/04/29 07:31:17;;;;;;;10.23;5.15;;;12.90;59.30;;;;;;5094111;28;20040;-65
2022/04/29 07:34:15;;;;;;;10.75;4.72;;;13.00;59.10;;;;;;5080179;28;20822;-64
2022/04/29 07:42:39;;;;;;;12.98;4.72;;;13.40;58.60;;;;;;4996430;28;20034;-65
2022/04/29 07:45:05;;;;;;;10.98;4.53;;;13.50;58.30;;;;;;5012123;28;20482;-65
2022/04/29 07:47:53;;;;;;;10.40;5.05;;;13.60;58.10;;;;;;5013190;28;20045;-65
2022/04/29 07:50:29;;;;;;;11.98;4.75;;;13.70;57.80;;;;;;4994905;28;20584;-64
2022/04/29 07:52:57;;;;;;;9.63;4.65;;;13.90;57.60;;;;;;4996725;28;20025;-65
2022/04/29 07:55:23;;;;;;;9.63;4.78;;;14.00;57.50;;;;;;4995761;28;20041;-64
2022/04/29 07:57:49;;;;;;;10.73;4.53;;;14.10;57.20;;;;;;4994767;28;20348;-65
2022/04/29 08:00:15;;;;;;;11.77;5.18;;;14.20;57.10;;;;;;5003399;28;20132;-64
2022/04/29 08:02:43;;;;;;;11.35;4.63;;;14.30;56.90;;;;;;5013409;28;20042;-65
2022/04/29 08:05:12;;;;;;;11.40;4.75;;;14.50;56.50;;;;;;4993792;28;20138;-66
2022/04/29 08:07:38;;;;;;;8.63;4.28;;;14.80;56.20;;;;;;4996440;28;20546;-65
2022/04/29 08:10:05;;;;;;;8.98;4.47;;;15.00;55.80;;;;;;5004299;28;20037;-65
2022/04/29 08:12:31;;;;;;;11.32;4.25;;;15.00;55.40;;;;;;5020071;28;20118;-65
2022/04/29 08:15:15;;;;;;;10.65;4.30;;;15.10;55.40;;;;;;5099149;28;20054;-63
2022/04/29 08:18:05;;;;;;;12.60;4.60;;;15.10;55.20;;;;;;5096040;27;20032;-66
2022/04/29 08:20:32;;;;;;;9.93;4.40;;;15.30;55.00;;;;;;5093418;28;20024;-64
2022/04/29 08:22:58;;;;;;;9.25;4.07;;;15.40;54.60;;;;;;5096703;28;20031;-64
2022/04/29 08:25:25;;;;;;;9.82;4.82;;;15.50;54.30;;;;;;5095550;28;20356;-65
2022/04/29 08:27:51;;;;;;;9.65;4.25;;;15.50;54.10;;;;;;5099910;28;20034;-64
2022/04/29 08:30:17;;;;;;;11.57;4.30;;;15.60;54.10;;;;;;5102782;28;20046;-64
2022/04/29 08:32:46;;;;;;;11.45;4.25;;;15.60;53.80;;;;;;5062458;28;20027;-64
2022/04/29 08:35:22;;;;;;;8.68;4.10;;;15.80;53.70;;;;;;5097990;28;20050;-64
2022/04/29 08:37:49;;;;;;;9.35;4.55;;;15.90;53.60;;;;;;5093031;28;20108;-65
2022/04/29 08:40:16;;;;;;;8.00;4.15;;;16.00;53.20;;;;;;5093815;28;20408;-64
2022/04/29 08:42:42;;;;;;;10.13;4.30;;;16.10;52.90;;;;;;5079194;28;20032;-65
2022/04/29 08:45:14;;;;;;;11.23;4.57;;;16.00;52.60;;;;;;5076114;28;20028;-65
2022/04/29 08:47:59;;;;;;;8.13;4.18;;;15.90;52.70;;;;;;5099420;28;20429;-65
2022/04/29 08:50:33;;;;;;;10.67;4.03;;;15.90;52.90;;;;;;5097443;28;20028;-65
2022/04/29 08:52:59;;;;;;;8.80;4.57;;;15.90;52.80;;;;;;5106062;28;20606;-65
2022/04/29 09:01:03;;;;;;;8.93;4.05;;;16.60;51.60;;;;;;5086894;28;20036;-64
2022/04/29 09:03:29;;;;;;;10.05;4.50;;;16.80;51.00;;;;;;5099971;28;20034;-65
2022/04/29 09:05:55;;;;;;;10.43;4.65;;;16.90;50.90;;;;;;5099756;28;20020;-65
2022/04/29 09:08:23;;;;;;;8.75;4.30;;;16.90;50.80;;;;;;5098196;28;20463;-65
2022/04/29 09:10:59;;;;;;;9.75;4.13;;;16.90;50.70;;;;;;5107644;27;20027;-65
2022/04/29 09:13:27;;;;;;;9.75;5.07;;;17.00;50.60;;;;;;5104415;27;20043;-65
2022/04/29 09:15:57;;;;;;;10.73;5.07;;;17.10;50.40;;;;;;5103186;27;20164;-64
2022/04/29 09:18:46;;;;;;;10.27;4.10;;;17.30;50.20;;;;;;5117194;27;20356;-65
2022/04/29 09:21:13;;;;;;;10.70;4.78;;;17.70;49.70;;;;;;5105225;28;20333;-64
2022/04/29 09:24:03;;;;;;;9.52;4.53;;;17.80;49.40;;;;;;5115975;27;20036;-63
2022/04/29 09:27:02;;;;;;;10.50;4.28;;;18.00;49.00;;;;;;5100429;27;20079;-64
2022/04/29 09:29:31;;;;;;;8.05;4.15;;;18.00;48.80;;;;;;5099927;28;20071;-62
2022/04/29 09:32:46;;;;;;;7.13;4.35;;;17.90;48.80;;;;;;5101698;27;20044;-64
2022/04/29 09:35:35;;;;;;;9.18;4.13;;;17.80;48.90;;;;;;5105713;27;20035;-64
2022/04/29 09:40:47;;;;;;;11.23;4.07;;;17.70;49.00;;;;;;5107971;28;20402;-64
2022/04/29 09:43:13;;;;;;;9.05;4.10;;;17.70;49.10;;;;;;5116928;28;20115;-64
2022/04/29 09:45:38;;;;;;;9.93;4.32;;;17.70;49.10;;;;;;5097765;28;20027;-64
2022/04/29 09:48:09;;;;;;;8.48;4.07;;;17.70;49.00;;;;;;5105949;28;20024;-63
2022/04/29 09:50:44;;;;;;;9.75;4.47;;;17.60;49.00;;;;;;5109766;28;20031;-65
2022/04/29 09:53:18;;;;;;;9.85;5.10;;;17.50;49.00;;;;;;5117460;28;20047;-65
2022/04/29 09:56:04;;;;;;;8.25;4.03;;;17.50;49.10;;;;;;5115023;28;20089;-65
2022/04/29 09:58:31;;;;;;;9.18;5.07;;;17.40;49.30;;;;;;5104724;27;20124;-64
2022/04/29 10:00:57;;;;;;;10.40;5.18;;;17.40;49.40;;;;;;5103880;28;20110;-66
2022/04/29 10:03:23;;;;;;;9.80;5.32;;;17.40;49.40;;;;;;5117306;28;20516;-65
2022/04/29 10:05:51;;;;;;;11.90;5.20;;;17.40;49.40;;;;;;5113797;28;20055;-66
2022/04/29 10:08:18;;;;;;;10.85;5.10;;;17.40;49.50;;;;;;5111947;28;20024;-65
2022/04/29 10:10:46;;;;;;;11.48;5.22;;;17.40;49.50;;;;;;5110838;27;20028;-65
2022/04/29 10:13:14;;;;;;;10.48;5.00;;;17.40;49.50;;;;;;5110370;28;20024;-65
2022/04/29 10:15:42;;;;;;;11.35;5.00;;;17.40;50.10;;;;;;5116284;27;20043;-63
2022/04/29 10:21:45;;;;;;;8.93;4.32;;;17.30;49.60;;;;;;5049351;28;20064;-63
2022/04/29 10:24:11;;;;;;;11.43;4.95;;;17.20;49.70;;;;;;5047851;28;20072;-63
2022/04/29 10:26:36;;;;;;;10.43;4.63;;;17.20;49.90;;;;;;5047782;28;20060;-63
2022/04/29 10:29:03;;;;;;;8.88;4.88;;;17.10;49.90;;;;;;5034683;28;20034;-63
2022/04/29 10:31:29;;;;;;;13.00;4.65;;;17.10;50.00;;;;;;5044482;28;20441;-64
2022/04/29 10:34:14;;;;;;;10.90;4.60;;;17.10;50.10;;;;;;5024134;28;20127;-64
2022/04/29 10:36:45;;;;;;;10.40;4.45;;;17.10;50.10;;;;;;5047398;28;20040;-64
2022/04/29 10:39:18;;;;;;;12.02;4.03;;;17.10;50.00;;;;;;5054327;28;20116;-64
2022/04/29 10:41:58;;;;;;;10.80;4.60;;;17.10;49.90;;;;;;5033826;28;20041;-64
2022/04/29 10:44:24;;;;;;;9.13;4.38;;;17.00;49.90;;;;;;5037591;28;20113;-64
2022/04/29 10:46:49;;;;;;;9.48;4.85;;;17.00;49.90;;;;;;5052286;28;20036;-64
2022/04/29 10:49:24;;;;;;;13.90;4.97;;;17.10;50.00;;;;;;5054253;28;20127;-64
2022/04/29 10:52:25;;;;;;;8.80;4.43;;;17.10;49.80;;;;;;5053523;28;20047;-64
2022/04/29 10:54:59;;;;;;;8.95;3.95;;;17.10;49.80;;;;;;5068689;28;20039;-63
2022/04/29 10:57:44;;;;;;;9.93;4.93;;;17.10;49.70;;;;;;5095584;28;20103;-64
2022/04/29 11:00:23;;;;;;;8.10;4.57;;;17.00;49.60;;;;;;5095426;28;20035;-63
2022/04/29 11:02:51;;;;;;;9.82;4.75;;;16.90;49.70;;;;;;5096292;28;20042;-63
2022/04/29 11:05:37;;;;;;;8.93;4.93;;;16.90;49.70;;;;;;5095924;28;20119;-63
2022/04/29 11:08:10;;;;;;;9.32;4.68;;;16.90;49.90;;;;;;5095239;28;20024;-63
2022/04/29 11:10:55;;;;;;;12.63;5.07;;;16.90;49.80;;;;;;5094733;28;20032;-64
2022/04/29 11:13:23;;;;;;;10.18;4.43;;;16.90;49.90;;;;;;5108535;28;20085;-64
2022/04/29 11:16:08;;;;;;;8.00;4.70;;;16.90;49.80;;;;;;5115274;28;20059;-63
2022/04/29 11:19:21;;;;;;;9.20;4.50;;;16.90;49.80;;;;;;5123150;27;20311;-64
2022/04/29 11:24:44;;;;;;;9.48;4.72;;;17.00;49.80;;;;;;5114828;28;20122;-64
2022/04/29 11:27:25;;;;;;;10.70;4.90;;;16.90;49.80;;;;;;5098236;27;20020;-64
2022/04/29 11:29:53;;;;;;;9.05;4.40;;;16.90;49.90;;;;;;5092385;28;20059;-63
2022/04/29 11:32:50;;;;;;;9.30;4.07;;;17.00;49.80;;;;;;5087519;28;20085;-64
2022/04/29 11:35:22;;;;;;;9.93;4.00;;;16.90;49.70;;;;;;5096671;27;20375;-63
2022/04/29 11:37:48;;;;;;;7.47;4.15;;;17.00;49.70;;;;;;5097931;28;20024;-64
2022/04/29 11:40:14;;;;;;;9.73;4.47;;;17.00;49.70;;;;;;5098905;28;20035;-64
2022/04/29 11:42:50;;;;;;;9.18;4.30;;;17.00;49.70;;;;;;5109924;28;20031;-64
2022/04/29 11:45:15;;;;;;;6.93;4.28;;;17.10;49.60;;;;;;5106749;28;20027;-64
2022/04/29 11:47:46;;;;;;;8.43;4.28;;;17.00;49.60;;;;;;5104688;28;20147;-64
2022/04/29 11:50:11;;;;;;;13.07;4.95;;;17.00;49.60;;;;;;5111704;28;20189;-64
2022/04/29 11:52:39;;;;;;;10.10;4.72;;;17.00;49.50;;;;;;5112665;28;20015;-65
2022/04/29 11:55:16;;;;;;;9.43;4.30;;;17.00;49.60;;;;;;5115429;28;20039;-65
2022/04/29 11:57:48;;;;;;;8.23;4.30;;;16.90;49.40;;;;;;5101327;28;20034;-65
2022/04/29 12:00:29;;;;;;;8.63;4.35;;;16.90;50.00;;;;;;5098078;28;20349;-64
2022/04/29 12:02:56;;;;;;;10.85;4.75;;;16.80;49.40;;;;;;5109966;28;20023;-64
2022/04/29 12:05:23;;;;;;;10.27;4.75;;;16.80;49.50;;;;;;5115061;28;20028;-64
2022/04/29 12:07:51;;;;;;;10.88;4.63;;;16.70;49.60;;;;;;5099963;28;20463;-64
2022/04/29 12:10:29;;;;;;;10.10;4.53;;;16.70;49.60;;;;;;5113942;28;20103;-64
2022/04/29 12:13:03;;;;;;;9.57;4.82;;;16.60;49.60;;;;;;5107185;28;20024;-64
2022/04/29 12:15:35;;;;;;;10.23;4.93;;;16.60;49.50;;;;;;5095107;28;20031;-64
2022/04/29 12:18:10;;;;;;;11.35;4.82;;;16.60;49.60;;;;;;5105014;28;20066;-64
2022/04/29 12:20:37;;;;;;;10.38;4.97;;;16.60;49.70;;;;;;5093527;28;20488;-65
2022/04/29 12:23:22;;;;;;;8.80;4.70;;;16.60;49.90;;;;;;5102608;28;20035;-64
2022/04/29 12:25:49;;;;;;;8.90;4.25;;;16.70;49.90;;;;;;5094524;28;20038;-65
2022/04/29 12:28:18;;;;;;;11.40;4.90;;;16.60;49.80;;;;;;5095599;28;20028;-64
2022/04/29 12:37:08;;;;;;;7.78;4.47;;;16.90;49.70;;;;;;5113391;28;20065;-63
2022/04/29 12:40:04;;;;;;;10.38;4.50;;;16.90;49.40;;;;;;5127603;28;20050;-65
2022/04/29 12:42:30;;;;;;;9.63;4.82;;;17.00;49.20;;;;;;5115163;28;20042;-66
2022/04/29 12:45:12;;;;;;;11.68;4.55;;;17.00;49.00;;;;;;5114653;28;20111;-65
2022/04/29 12:48:05;;;;;;;9.48;4.47;;;17.10;49.00;;;;;;5113639;28;20486;-66
2022/04/29 12:50:44;;;;;;;8.45;3.90;;;17.10;48.80;;;;;;5108262;28;20031;-64
2022/04/29 12:53:17;;;;;;;10.30;4.28;;;17.20;48.70;;;;;;5113459;28;20031;-64
2022/04/29 12:55:44;;;;;;;7.63;3.90;;;17.20;48.60;;;;;;5116977;28;20015;-64
2022/04/29 12:58:14;;;;;;;9.10;3.63;;;17.20;48.50;;;;;;5128622;27;20024;-65
2022/04/29 13:00:42;;;;;;;8.75;4.47;;;17.10;48.40;;;;;;5121169;28;20031;-64
2022/04/29 13:03:10;;;;;;;7.22;4.18;;;17.20;48.40;;;;;;5130730;28;20041;-65
2022/04/29 13:05:40;;;;;;;8.00;3.75;;;17.30;48.30;;;;;;5134706;28;20451;-64
2022/04/29 13:08:09;;;;;;;9.00;4.47;;;17.40;48.20;;;;;;5119321;27;20328;-65
2022/04/29 13:10:51;;;;;;;8.32;4.05;;;17.50;47.90;;;;;;5133938;27;20047;-65
2022/04/29 13:13:19;;;;;;;7.22;4.20;;;17.60;47.70;;;;;;5133079;27;20020;-65
2022/04/29 13:15:48;;;;;;;9.43;4.18;;;17.70;47.60;;;;;;5129915;28;20102;-65
2022/04/29 13:18:17;;;;;;;10.38;3.75;;;17.80;47.40;;;;;;5121895;28;20034;-64
2022/04/29 13:20:43;;;;;;;10.02;4.45;;;17.90;47.20;;;;;;5121910;27;20102;-64
2022/04/29 13:23:14;;;;;;;7.32;3.78;;;17.90;47.10;;;;;;5108477;28;20352;-64
2022/04/29 13:25:45;;;;;;;7.32;4.22;;;18.00;47.10;;;;;;5134224;28;20060;-64
2022/04/29 13:28:11;;;;;;;8.48;4.03;;;18.00;47.00;;;;;;5122890;28;20491;-65
2022/04/29 13:30:39;;;;;;;9.05;4.18;;;18.00;46.90;;;;;;5120509;28;20118;-64
2022/04/29 13:33:05;;;;;;;8.02;4.40;;;17.90;46.80;;;;;;5121980;27;20028;-63
2022/04/29 13:35:31;;;;;;;9.05;4.13;;;17.90;46.80;;;;;;5137850;27;20062;-65
2022/04/29 13:37:57;;;;;;;8.32;4.43;;;17.80;46.70;;;;;;5133018;27;20021;-65